Time;durP1;ratioP1;P1;durP2;ratioP2;P2;SDS_P1;SDS_P2;PMS_P1;PMS_P2;Temp;Humidity;BMP_temperature;BMP_pressure;BME280_temperature;BME280_humidity;BME280_pressure;Samples;Min_cycle;Max_cycle;Signal;HPM_P1;HPM_P2
2021/10/08 00:01:32;;;;;;;6.80;6.30;;;;;;;7.04;100.00;99188.59;4949933;28;20202;-68
2021/10/08 00:04:01;;;;;;;7.27;6.70;;;;;;;7.12;100.00;99183.59;4908482;28;20774;-67
2021/10/08 00:06:30;;;;;;;7.80;6.83;;;;;;;7.08;100.00;99185.59;4950260;28;20452;-66
2021/10/08 00:08:58;;;;;;;6.97;6.33;;;;;;;6.97;100.00;99187.34;4954191;28;20758;-68
2021/10/08 00:11:27;;;;;;;7.37;6.23;;;;;;;6.93;100.00;99181.47;4941529;28;20218;-67
2021/10/08 00:13:55;;;;;;;7.80;7.20;;;;;;;6.89;100.00;99180.00;4949090;28;20718;-68
2021/10/08 00:16:23;;;;;;;7.20;6.40;;;;;;;6.97;100.00;99177.66;4953646;28;20214;-66
2021/10/08 00:18:51;;;;;;;8.17;7.50;;;;;;;6.98;100.00;99181.09;4907732;28;21012;-68
2021/10/08 00:21:19;;;;;;;7.50;6.90;;;;;;;6.88;100.00;99178.31;4953720;28;20207;-68
2021/10/08 00:23:50;;;;;;;7.10;6.60;;;;;;;6.93;100.00;99182.28;4947306;28;20238;-68
2021/10/08 00:26:18;;;;;;;7.93;7.20;;;;;;;6.76;100.00;99180.03;4948502;28;20226;-68
2021/10/08 00:28:46;;;;;;;7.23;6.63;;;;;;;6.58;100.00;99182.19;4938622;28;20873;-68
2021/10/08 00:31:14;;;;;;;6.80;6.23;;;;;;;6.48;100.00;99179.38;4951109;28;20206;-69
2021/10/08 00:33:42;;;;;;;7.30;6.70;;;;;;;6.40;100.00;99185.16;4905777;28;20353;-67
2021/10/08 00:36:10;;;;;;;7.17;6.57;;;;;;;6.45;100.00;99185.72;4952048;28;20739;-69
2021/10/08 00:38:40;;;;;;;7.67;7.07;;;;;;;6.39;100.00;99185.28;4952030;28;20305;-66
2021/10/08 00:41:10;;;;;;;8.13;6.67;;;;;;;6.33;100.00;99182.16;4951362;28;20206;-68
2021/10/08 00:43:38;;;;;;;9.17;7.73;;;;;;;6.24;100.00;99185.41;4941650;28;20242;-66
2021/10/08 00:46:06;;;;;;;7.73;6.97;;;;;;;6.27;100.00;99187.00;4954751;28;20206;-68
2021/10/08 00:48:34;;;;;;;7.77;7.07;;;;;;;6.25;100.00;99181.84;4941867;28;20218;-66
2021/10/08 00:51:02;;;;;;;8.07;7.47;;;;;;;6.16;100.00;99182.47;4926506;28;20217;-68
2021/10/08 00:53:30;;;;;;;8.27;7.57;;;;;;;6.15;100.00;99186.91;4953840;28;20257;-67
2021/10/08 00:55:58;;;;;;;7.87;7.23;;;;;;;6.10;100.00;99182.91;4956743;28;20349;-68
2021/10/08 00:58:27;;;;;;;7.37;6.77;;;;;;;6.06;100.00;99179.63;4946873;28;20218;-66
2021/10/08 01:00:55;;;;;;;10.10;8.93;;;;;;;6.11;100.00;99181.94;4956750;28;20229;-68
2021/10/08 01:03:24;;;;;;;7.70;7.00;;;;;;;6.30;100.00;99176.25;4956336;28;20234;-67
2021/10/08 01:05:52;;;;;;;7.97;7.33;;;;;;;6.36;100.00;99183.72;4910395;28;20406;-68
2021/10/08 01:08:20;;;;;;;8.20;7.50;;;;;;;6.54;100.00;99170.22;4955646;28;20223;-68
2021/10/08 01:10:48;;;;;;;8.27;7.10;;;;;;;6.61;100.00;99172.28;4953065;28;20643;-68
2021/10/08 01:13:17;;;;;;;8.90;8.10;;;;;;;6.54;100.00;99175.47;4946632;28;20241;-68
2021/10/08 01:15:46;;;;;;;9.13;8.13;;;;;;;6.41;100.00;99180.75;4953384;28;20202;-68
2021/10/08 01:18:14;;;;;;;8.07;7.30;;;;;;;6.33;100.00;99176.88;4954754;28;20202;-66
2021/10/08 01:20:43;;;;;;;8.67;7.87;;;;;;;6.37;100.00;99170.44;4913849;28;20706;-68
2021/10/08 01:23:11;;;;;;;7.60;7.07;;;;;;;6.53;100.00;99173.78;4953239;28;20812;-66
2021/10/08 01:25:39;;;;;;;8.47;7.67;;;;;;;6.67;100.00;99173.63;4938574;28;20669;-66
2021/10/08 01:28:07;;;;;;;8.27;7.53;;;;;;;6.56;100.00;99163.84;4948396;28;20234;-68
2021/10/08 01:30:36;;;;;;;8.93;8.13;;;;;;;6.41;100.00;99163.16;4952783;28;20576;-66
2021/10/08 01:33:05;;;;;;;8.33;7.60;;;;;;;6.61;100.00;99163.53;4943457;28;20594;-68
2021/10/08 01:35:33;;;;;;;8.43;7.63;;;;;;;6.71;100.00;99159.28;4926672;28;20230;-66
2021/10/08 01:38:03;;;;;;;8.07;7.37;;;;;;;6.71;100.00;99158.47;4944032;28;20214;-68
2021/10/08 01:40:32;;;;;;;8.43;7.67;;;;;;;6.77;100.00;99161.47;4956083;28;20210;-66
2021/10/08 01:43:00;;;;;;;7.50;6.90;;;;;;;6.77;100.00;99155.38;4941987;28;20780;-68
2021/10/08 01:45:28;;;;;;;7.87;7.27;;;;;;;6.70;100.00;99162.88;4948616;28;20217;-67
2021/10/08 01:47:56;;;;;;;7.37;6.67;;;;;;;6.66;100.00;99157.00;4936896;28;20236;-68
2021/10/08 01:50:25;;;;;;;8.50;7.63;;;;;;;6.62;100.00;99154.69;4948510;28;20218;-66
2021/10/08 01:52:53;;;;;;;8.47;7.70;;;;;;;6.73;100.00;99159.19;4915731;28;20250;-69
2021/10/08 01:55:22;;;;;;;7.23;6.63;;;;;;;6.72;100.00;99154.88;4953363;28;20210;-68
2021/10/08 01:57:50;;;;;;;7.80;7.00;;;;;;;6.69;100.00;99155.09;4913358;28;20639;-68
2021/10/08 02:00:18;;;;;;;7.17;6.63;;;;;;;6.69;100.00;99148.03;4955539;28;20580;-68
2021/10/08 02:02:46;;;;;;;7.67;6.97;;;;;;;6.69;100.00;99150.66;4948357;28;20526;-67
2021/10/08 02:05:14;;;;;;;8.27;6.97;;;;;;;6.61;100.00;99140.66;4953592;28;20206;-68
2021/10/08 02:07:42;;;;;;;7.97;7.10;;;;;;;6.69;100.00;99148.03;4949473;28;20237;-67
2021/10/08 02:10:10;;;;;;;7.50;6.80;;;;;;;6.49;100.00;99137.16;4953472;28;20454;-69
2021/10/08 02:12:40;;;;;;;8.17;7.47;;;;;;;6.44;100.00;99139.28;4917241;28;20561;-66
2021/10/08 02:15:08;;;;;;;9.10;7.60;;;;;;;6.57;100.00;99147.09;4957986;28;20674;-68
2021/10/08 02:17:36;;;;;;;7.57;6.97;;;;;;;6.47;100.00;99138.19;4956079;28;20635;-66
2021/10/08 02:20:05;;;;;;;7.63;7.03;;;;;;;6.42;100.00;99135.03;4956213;28;20229;-68
2021/10/08 02:22:33;;;;;;;9.13;8.17;;;;;;;6.46;100.00;99140.00;4946406;28;20222;-68
2021/10/08 02:25:01;;;;;;;9.43;8.63;;;;;;;6.49;100.00;99141.56;4953103;28;20236;-69
2021/10/08 02:27:29;;;;;;;8.17;7.47;;;;;;;6.40;100.00;99139.59;4921292;28;20259;-67
2021/10/08 02:29:58;;;;;;;7.97;7.33;;;;;;;6.40;100.00;99144.84;4953348;28;20444;-68
2021/10/08 02:32:26;;;;;;;8.40;7.70;;;;;;;6.42;100.00;99135.88;4956028;28;20218;-67
2021/10/08 02:34:54;;;;;;;8.80;7.87;;;;;;;6.49;100.00;99133.66;4945670;28;20345;-68
2021/10/08 02:37:22;;;;;;;8.97;8.17;;;;;;;6.51;100.00;99132.59;4954600;28;20960;-67
2021/10/08 02:39:50;;;;;;;7.63;7.03;;;;;;;6.36;100.00;99139.81;4951388;28;20203;-69
2021/10/08 02:42:18;;;;;;;8.63;7.70;;;;;;;6.19;100.00;99146.25;4956081;28;20207;-69
2021/10/08 02:44:46;;;;;;;7.43;6.83;;;;;;;5.96;100.00;99141.72;4916800;28;20730;-69
2021/10/08 02:47:15;;;;;;;7.80;7.20;;;;;;;6.06;100.00;99138.38;4954795;28;20206;-70
2021/10/08 02:49:43;;;;;;;7.53;6.80;;;;;;;6.05;100.00;99138.47;4949064;28;20556;-69
2021/10/08 02:52:11;;;;;;;8.20;7.50;;;;;;;5.90;100.00;99146.44;4952496;28;20315;-70
2021/10/08 02:54:59;;;;;;;7.63;6.97;;;;;;;5.89;100.00;99152.66;4954477;28;20292;-70
2021/10/08 02:57:27;;;;;;;8.17;6.87;;;;;;;5.89;100.00;99143.94;4953836;28;20493;-68
2021/10/08 02:59:55;;;;;;;10.07;8.07;;;;;;;6.00;100.00;99141.41;4911344;28;20218;-70
2021/10/08 03:02:24;;;;;;;7.97;7.27;;;;;;;5.89;100.00;99146.56;4952336;28;20676;-69
2021/10/08 03:04:52;;;;;;;7.40;6.90;;;;;;;5.88;100.00;99153.63;4949517;28;20226;-68
2021/10/08 03:07:20;;;;;;;8.07;7.47;;;;;;;5.89;100.00;99152.66;4955247;28;20222;-70
2021/10/08 03:09:48;;;;;;;7.57;6.93;;;;;;;5.67;100.00;99149.81;4950803;28;20309;-70
2021/10/08 03:12:16;;;;;;;6.47;5.90;;;;;;;5.56;100.00;99154.00;4955235;28;20206;-70
2021/10/08 03:14:44;;;;;;;7.20;6.70;;;;;;;5.46;100.00;99155.59;4918283;28;20249;-68
2021/10/08 03:17:12;;;;;;;6.90;6.40;;;;;;;5.42;100.00;99151.47;4950845;28;20206;-70
2021/10/08 03:19:42;;;;;;;7.70;7.10;;;;;;;5.34;100.00;99157.25;4954595;28;20572;-68
2021/10/08 03:22:10;;;;;;;7.87;7.27;;;;;;;5.31;100.00;99157.44;4952918;28;20210;-70
2021/10/08 03:24:38;;;;;;;7.77;7.07;;;;;;;5.29;100.00;99156.69;4953297;28;20257;-69
2021/10/08 03:27:06;;;;;;;7.30;6.60;;;;;;;5.21;100.00;99154.56;4951052;28;20458;-69
2021/10/08 03:29:34;;;;;;;7.87;7.13;;;;;;;5.11;100.00;99153.50;4936644;28;20241;-68
2021/10/08 03:32:03;;;;;;;8.03;7.43;;;;;;;5.07;100.00;99155.47;4938074;28;20437;-70
2021/10/08 03:34:31;;;;;;;7.73;6.93;;;;;;;4.97;100.00;99154.41;4941887;28;20238;-69
2021/10/08 03:37:02;;;;;;;7.70;7.10;;;;;;;4.90;100.00;99153.94;4949419;28;20555;-70
2021/10/08 03:39:33;;;;;;;7.93;7.33;;;;;;;4.88;100.00;99151.44;4938226;28;20207;-70
2021/10/08 03:42:01;;;;;;;7.37;6.67;;;;;;;4.93;100.00;99151.97;4955701;28;20269;-70
2021/10/08 03:44:34;;;;;;;8.10;7.40;;;;;;;4.81;100.00;99147.53;4951845;28;20519;-68
2021/10/08 03:47:03;;;;;;;8.13;7.43;;;;;;;4.84;100.00;99152.56;4923138;28;20218;-70
2021/10/08 03:49:31;;;;;;;8.50;7.70;;;;;;;4.89;100.00;99153.13;4948349;28;20486;-70
2021/10/08 03:52:00;;;;;;;8.67;7.97;;;;;;;4.83;100.00;99166.66;4955191;28;20669;-69
2021/10/08 03:54:28;;;;;;;8.70;7.97;;;;;;;4.76;100.00;99174.06;4944750;28;20364;-69
2021/10/08 03:56:56;;;;;;;8.00;7.37;;;;;;;4.71;100.00;99167.41;4952970;28;20701;-69
2021/10/08 03:59:24;;;;;;;9.13;8.30;;;;;;;4.67;100.00;99176.44;4950996;28;20607;-69
2021/10/08 04:01:52;;;;;;;8.67;7.90;;;;;;;4.61;100.00;99172.44;4919799;28;20225;-70
2021/10/08 04:04:20;;;;;;;8.17;7.50;;;;;;;4.55;100.00;99171.03;4913317;28;20274;-70
2021/10/08 04:06:48;;;;;;;8.67;8.03;;;;;;;4.63;100.00;99175.78;4943359;28;20206;-69
2021/10/08 04:09:18;;;;;;;8.10;7.40;;;;;;;4.63;100.00;99173.16;4949621;28;20230;-69
2021/10/08 04:11:45;;;;;;;8.27;7.50;;;;;;;4.62;100.00;99176.75;4941640;28;20210;-67
2021/10/08 04:14:14;;;;;;;8.27;7.57;;;;;;;4.54;100.00;99174.59;4953067;28;20226;-69
2021/10/08 04:16:41;;;;;;;7.87;7.27;;;;;;;4.48;100.00;99169.72;4951032;28;20671;-67
2021/10/08 04:19:09;;;;;;;8.30;7.63;;;;;;;4.46;100.00;99168.97;4918996;28;20407;-69
2021/10/08 04:21:37;;;;;;;7.03;6.53;;;;;;;4.47;100.00;99165.41;4950880;28;20224;-68
2021/10/08 04:24:05;;;;;;;7.77;7.07;;;;;;;4.44;100.00;99168.22;4951547;28;20241;-68
2021/10/08 04:26:35;;;;;;;8.57;7.77;;;;;;;4.38;100.00;99161.56;4945158;28;20234;-68
2021/10/08 04:29:03;;;;;;;9.17;8.27;;;;;;;4.43;100.00;99166.56;4954312;28;20379;-68
2021/10/08 04:31:31;;;;;;;8.30;7.60;;;;;;;4.37;100.00;99159.88;4957998;28;20210;-69
2021/10/08 04:33:59;;;;;;;8.33;7.63;;;;;;;4.37;100.00;99165.13;4920973;28;21420;-68
2021/10/08 04:36:27;;;;;;;7.30;6.60;;;;;;;4.34;100.00;99160.09;4950262;28;20578;-68
2021/10/08 04:38:55;;;;;;;8.10;7.40;;;;;;;4.33;100.00;99161.84;4950243;28;20237;-69
2021/10/08 04:41:23;;;;;;;8.70;7.57;;;;;;;4.45;100.00;99162.03;4954085;28;20556;-67
2021/10/08 04:43:52;;;;;;;8.27;7.67;;;;;;;4.43;100.00;99156.88;4938459;28;20234;-67
2021/10/08 04:46:20;;;;;;;9.13;8.33;;;;;;;4.35;100.00;99165.22;4958956;28;20237;-68
2021/10/08 04:48:48;;;;;;;7.77;7.03;;;;;;;4.35;100.00;99159.97;4915601;28;20238;-67
2021/10/08 04:51:16;;;;;;;7.60;6.87;;;;;;;4.25;100.00;99166.75;4936841;28;20300;-67
2021/10/08 04:53:44;;;;;;;9.60;7.60;;;;;;;4.27;100.00;99175.34;4958124;28;20789;-68
2021/10/08 04:56:12;;;;;;;7.73;7.10;;;;;;;4.35;100.00;99169.66;4937408;28;20667;-67
2021/10/08 04:58:40;;;;;;;9.17;7.67;;;;;;;4.37;100.00;99166.94;4946056;28;20706;-67
2021/10/08 05:01:10;;;;;;;8.10;7.40;;;;;;;4.42;100.00;99168.31;4953958;28;20690;-69
2021/10/08 05:03:38;;;;;;;11.43;10.30;;;;;;;4.49;100.00;99163.53;4941142;28;20226;-70
2021/10/08 05:06:06;;;;;;;10.17;9.23;;;;;;;4.36;100.00;99166.06;4920588;28;20226;-68
2021/10/08 05:08:34;;;;;;;7.77;7.07;;;;;;;4.28;100.00;99174.41;4951398;28;20217;-69
2021/10/08 05:11:02;;;;;;;7.70;7.00;;;;;;;4.22;100.00;99171.34;4952353;28;20211;-70
2021/10/08 05:13:30;;;;;;;7.07;6.47;;;;;;;4.19;100.00;99167.13;4925996;28;20241;-70
2021/10/08 05:15:57;;;;;;;7.20;6.70;;;;;;;4.28;100.00;99177.03;4950618;28;20207;-69
2021/10/08 05:18:27;;;;;;;8.03;7.43;;;;;;;4.40;100.00;99172.00;4939186;28;20226;-69
2021/10/08 05:20:55;;;;;;;7.73;7.03;;;;;;;4.36;100.00;99181.81;4919222;28;20825;-70
2021/10/08 05:23:23;;;;;;;9.37;8.43;;;;;;;4.36;100.00;99179.19;4950654;28;20899;-69
2021/10/08 05:25:51;;;;;;;11.60;9.53;;;;;;;4.40;100.00;99191.19;4940038;28;20522;-70
2021/10/08 05:28:19;;;;;;;9.37;7.67;;;;;;;4.62;100.00;99193.31;4955964;28;20206;-70
2021/10/08 05:30:47;;;;;;;8.63;7.83;;;;;;;4.70;100.00;99195.47;4937154;28;20463;-70
2021/10/08 05:33:15;;;;;;;7.73;7.13;;;;;;;4.76;100.00;99194.25;4957734;28;20250;-72
2021/10/08 05:35:44;;;;;;;8.37;7.70;;;;;;;4.85;100.00;99185.78;4894878;28;20226;-69
2021/10/08 05:38:12;;;;;;;8.63;7.83;;;;;;;4.95;100.00;99188.66;4950130;28;20209;-70
2021/10/08 05:40:40;;;;;;;9.93;8.40;;;;;;;5.02;100.00;99189.09;4924248;28;20436;-68
2021/10/08 05:43:08;;;;;;;9.17;8.27;;;;;;;5.11;100.00;99188.50;4955866;28;20927;-69
2021/10/08 05:45:36;;;;;;;8.50;7.77;;;;;;;5.27;100.00;99179.63;4941173;28;20493;-68
2021/10/08 05:48:05;;;;;;;8.80;7.67;;;;;;;5.34;100.00;99178.25;4946808;28;20252;-70
2021/10/08 05:50:33;;;;;;;11.80;10.57;;;;;;;5.54;100.00;99174.31;4939063;28;20516;-68
2021/10/08 05:53:02;;;;;;;11.60;10.13;;;;;;;5.62;100.00;99174.63;4922186;28;20241;-69
2021/10/08 05:55:31;;;;;;;14.37;9.43;;;;;;;5.85;100.00;99172.25;4942378;28;20222;-67
2021/10/08 05:58:00;;;;;;;15.03;9.77;;;;;;;5.97;100.00;99181.09;4946600;28;20203;-69
2021/10/08 06:00:28;;;;;;;12.77;8.90;;;;;;;6.13;100.00;99177.41;4940351;28;20306;-68
2021/10/08 06:02:56;;;;;;;10.00;9.00;;;;;;;6.17;100.00;99176.25;4943017;28;20333;-68
2021/10/08 06:05:24;;;;;;;11.10;9.10;;;;;;;6.17;100.00;99179.75;4948014;28;20237;-67
2021/10/08 06:07:52;;;;;;;10.23;8.93;;;;;;;6.16;100.00;99179.84;4913795;28;24195;-70
2021/10/08 06:10:22;;;;;;;9.30;8.47;;;;;;;6.15;100.00;99175.53;4952539;28;20426;-69
2021/10/08 06:12:50;;;;;;;11.27;9.80;;;;;;;6.25;100.00;99183.63;4907926;28;20307;-68
2021/10/08 06:15:18;;;;;;;11.37;9.00;;;;;;;6.31;100.00;99180.56;4953514;28;20210;-68
2021/10/08 06:17:46;;;;;;;10.30;9.23;;;;;;;6.43;100.00;99178.88;4944837;28;20305;-69
2021/10/08 06:20:14;;;;;;;10.00;8.57;;;;;;;6.56;100.00;99179.66;4952239;28;20812;-69
2021/10/08 06:22:45;;;;;;;10.13;8.80;;;;;;;6.59;100.00;99174.16;4940682;28;20290;-68
2021/10/08 06:25:13;;;;;;;8.63;7.90;;;;;;;6.65;100.00;99179.03;4950216;28;20242;-69
2021/10/08 06:27:43;;;;;;;9.70;8.80;;;;;;;6.53;100.00;99174.63;4918821;28;20226;-68
2021/10/08 06:30:11;;;;;;;8.60;7.90;;;;;;;6.56;100.00;99184.09;4949062;28;20238;-70
2021/10/08 06:32:39;;;;;;;8.30;7.53;;;;;;;6.68;100.00;99179.75;4945057;28;20210;-68
2021/10/08 06:35:08;;;;;;;8.40;7.63;;;;;;;6.65;100.00;99178.16;4940711;28;20266;-68
2021/10/08 06:37:36;;;;;;;8.20;7.50;;;;;;;6.79;100.00;99178.00;4942323;28;20687;-70
2021/10/08 06:40:08;;;;;;;8.43;7.63;;;;;;;6.88;100.00;99179.16;4950511;28;20754;-69
2021/10/08 06:42:36;;;;;;;8.50;7.70;;;;;;;6.85;100.00;99187.28;4921072;28;20552;-68
2021/10/08 06:45:07;;;;;;;8.67;7.97;;;;;;;7.11;100.00;99189.81;4949989;28;20397;-70
2021/10/08 06:47:35;;;;;;;8.80;7.67;;;;;;;7.39;100.00;99190.44;4953083;28;20220;-69
2021/10/08 06:50:04;;;;;;;8.90;8.13;;;;;;;7.22;100.00;99187.22;4951569;28;20225;-69
2021/10/08 06:52:32;;;;;;;10.00;8.00;;;;;;;7.22;100.00;99186.41;4954489;28;20202;-70
2021/10/08 06:55:00;;;;;;;8.27;7.50;;;;;;;7.41;100.00;99191.16;4937264;28;20209;-69
2021/10/08 06:57:28;;;;;;;8.53;7.87;;;;;;;7.35;100.00;99175.75;4920572;28;20210;-67
2021/10/08 06:59:56;;;;;;;7.60;6.93;;;;;;;7.53;100.00;99184.09;4951624;28;20301;-68
2021/10/08 07:02:25;;;;;;;7.47;6.87;;;;;;;7.67;100.00;99183.91;4953761;28;20233;-69
2021/10/08 07:04:53;;;;;;;8.63;7.93;;;;;;;7.77;100.00;99189.34;4949329;28;20222;-68
2021/10/08 07:07:21;;;;;;;7.77;7.17;;;;;;;7.61;100.00;99188.81;4949830;28;20311;-70
2021/10/08 07:09:49;;;;;;;8.37;7.67;;;;;;;7.58;100.00;99187.25;4942158;28;20222;-69
2021/10/08 07:12:17;;;;;;;10.80;7.43;;;;;;;7.77;100.00;99191.97;4915227;28;20638;-69
2021/10/08 07:14:46;;;;;;;8.50;7.80;;;;;;;7.75;100.00;99185.13;4951796;28;20234;-69
2021/10/08 07:17:14;;;;;;;7.63;7.13;;;;;;;7.78;100.00;99196.31;4950141;28;20328;-67
2021/10/08 07:19:43;;;;;;;9.80;7.13;;;;;;;7.84;100.00;99191.50;4936484;28;20218;-68
2021/10/08 07:22:12;;;;;;;8.33;7.53;;;;;;;7.73;100.00;99184.41;4952374;28;20211;-70
2021/10/08 07:24:40;;;;;;;8.23;7.60;;;;;;;7.87;100.00;99180.72;4939512;28;20253;-70
2021/10/08 07:27:08;;;;;;;8.47;7.77;;;;;;;8.09;100.00;99179.91;4939190;28;20237;-68
2021/10/08 07:29:36;;;;;;;9.50;8.60;;;;;;;7.95;100.00;99184.47;4910113;28;20218;-68
2021/10/08 07:32:06;;;;;;;9.70;7.83;;;;;;;7.98;100.00;99188.66;4948707;28;20535;-69
2021/10/08 07:34:34;;;;;;;9.47;7.73;;;;;;;8.04;100.00;99182.88;4952582;28;20321;-69
2021/10/08 07:37:03;;;;;;;8.07;7.37;;;;;;;8.03;100.00;99189.13;4935215;28;20421;-69
2021/10/08 07:39:31;;;;;;;8.43;7.63;;;;;;;8.02;100.00;99184.81;4953806;28;20203;-71
2021/10/08 07:41:59;;;;;;;7.67;7.07;;;;;;;8.17;100.00;99193.34;4924391;28;20428;-71
2021/10/08 07:44:27;;;;;;;8.70;7.43;;;;;;;8.09;100.00;99196.56;4920510;28;20261;-69
2021/10/08 07:46:55;;;;;;;8.40;7.60;;;;;;;8.11;100.00;99192.00;4945779;28;20420;-71
2021/10/08 07:49:23;;;;;;;9.33;7.20;;;;;;;8.08;100.00;99184.31;4952087;28;20256;-69
2021/10/08 07:51:52;;;;;;;7.57;6.97;;;;;;;8.15;100.00;99192.63;4937851;28;20325;-68
2021/10/08 07:54:24;;;;;;;7.50;6.80;;;;;;;8.16;100.00;99196.13;4952454;28;20299;-69
2021/10/08 07:56:53;;;;;;;7.30;6.47;;;;;;;8.37;100.00;99198.88;4923093;28;20210;-69
2021/10/08 07:59:21;;;;;;;8.27;7.53;;;;;;;8.52;100.00;99194.19;4952404;28;20218;-71
2021/10/08 08:01:50;;;;;;;9.20;7.13;;;;;;;8.52;100.00;99204.78;4918788;28;20213;-69
2021/10/08 08:04:18;;;;;;;8.80;8.00;;;;;;;8.45;100.00;99192.97;4956948;28;20225;-69
2021/10/08 08:06:47;;;;;;;8.07;7.27;;;;;;;8.57;100.00;99204.41;4943845;28;20221;-70
2021/10/08 08:09:16;;;;;;;7.97;7.13;;;;;;;8.67;100.00;99192.16;4956832;28;20784;-71
2021/10/08 08:11:45;;;;;;;7.50;6.90;;;;;;;8.86;100.00;99199.44;4944115;28;20680;-69
2021/10/08 08:14:13;;;;;;;7.60;6.80;;;;;;;8.92;100.00;99193.69;4938789;28;20230;-70
2021/10/08 08:16:41;;;;;;;8.40;7.63;;;;;;;8.99;100.00;99191.38;4922474;28;20214;-70
2021/10/08 08:19:11;;;;;;;7.67;7.07;;;;;;;9.17;100.00;99190.84;4913701;28;20214;-70
2021/10/08 08:21:39;;;;;;;7.87;7.00;;;;;;;9.20;100.00;99191.41;4954073;28;20675;-71
2021/10/08 08:24:08;;;;;;;8.13;6.73;;;;;;;9.29;100.00;99192.47;4953611;28;20406;-68
2021/10/08 08:26:36;;;;;;;7.83;7.13;;;;;;;9.49;100.00;99195.31;4955654;28;20377;-70
2021/10/08 08:29:07;;;;;;;7.30;6.60;;;;;;;9.33;100.00;99193.91;4949541;28;20210;-73
2021/10/08 08:31:35;;;;;;;9.93;7.53;;;;;;;9.48;100.00;99193.63;4955379;28;20229;-69
2021/10/08 08:34:04;;;;;;;9.13;8.27;;;;;;;9.35;100.00;99199.91;4943003;28;20237;-70
2021/10/08 08:36:33;;;;;;;8.50;7.80;;;;;;;9.47;100.00;99191.91;4945443;28;20222;-69
2021/10/08 08:39:05;;;;;;;8.07;7.03;;;;;;;9.36;100.00;99184.88;4951223;28;20680;-69
2021/10/08 08:41:33;;;;;;;8.00;7.23;;;;;;;9.53;100.00;99188.78;4955050;28;20229;-67
2021/10/08 08:44:01;;;;;;;9.90;7.57;;;;;;;9.61;100.00;99190.75;4954587;28;20218;-69
2021/10/08 08:46:31;;;;;;;7.80;7.20;;;;;;;9.82;100.00;99190.75;4955819;28;20327;-69
2021/10/08 08:49:00;;;;;;;8.77;7.87;;;;;;;9.73;100.00;99183.59;4953920;28;20198;-70
2021/10/08 08:51:28;;;;;;;7.77;7.07;;;;;;;10.00;100.00;99183.06;4923619;28;20238;-72
2021/10/08 08:53:58;;;;;;;10.57;7.50;;;;;;;9.83;100.00;99193.31;4953263;28;20223;-69
2021/10/08 08:56:26;;;;;;;9.07;8.10;;;;;;;9.96;100.00;99182.50;4952477;28;20296;-69
2021/10/08 08:59:01;;;;;;;7.70;7.00;;;;;;;10.08;100.00;99177.13;4953833;28;20284;-69
2021/10/08 09:01:30;;;;;;;7.93;7.27;;;;;;;10.30;100.00;99168.16;4954343;28;20311;-69
2021/10/08 09:04:04;;;;;;;8.30;7.60;;;;;;;10.36;100.00;99174.75;4953883;28;20226;-69
2021/10/08 09:06:38;;;;;;;9.80;8.23;;;;;;;10.38;100.00;99181.56;4924100;28;20237;-71
2021/10/08 09:09:16;;;;;;;9.03;8.13;;;;;;;10.31;100.00;99171.66;4949898;28;20198;-70
2021/10/08 09:11:44;;;;;;;9.17;8.07;;;;;;;10.38;100.00;99163.03;4955404;28;20312;-70
2021/10/08 09:14:20;;;;;;;8.33;7.73;;;;;;;10.52;100.00;99169.81;4956817;28;20230;-67
2021/10/08 09:17:10;;;;;;;8.53;7.57;;;;;;;10.59;100.00;99171.91;4953479;28;20699;-68
2021/10/08 09:19:54;;;;;;;10.10;9.03;;;;;;;10.65;100.00;99169.56;4950889;28;20211;-67
2021/10/08 09:22:24;;;;;;;9.93;7.60;;;;;;;10.89;100.00;99175.47;4926635;28;20988;-72
2021/10/08 09:24:52;;;;;;;9.83;8.53;;;;;;;10.96;100.00;99172.16;4952237;28;20222;-70
2021/10/08 09:27:23;;;;;;;8.37;7.60;;;;;;;10.91;100.00;99171.72;4949863;28;20209;-67
2021/10/08 09:29:53;;;;;;;9.50;8.07;;;;;;;11.15;100.00;99167.81;4955956;28;20689;-67
2021/10/08 09:32:24;;;;;;;11.10;7.57;;;;;;;11.20;100.00;99170.91;4953577;28;20229;-70
2021/10/08 09:35:04;;;;;;;9.40;7.70;;;;;;;11.24;100.00;99163.50;4951490;28;20226;-69
2021/10/08 09:37:33;;;;;;;8.93;8.03;;;;;;;11.24;100.00;99172.31;4928973;28;20213;-68
2021/10/08 09:40:01;;;;;;;10.93;9.87;;;;;;;11.13;100.00;99170.63;4953544;28;20214;-69
2021/10/08 09:42:33;;;;;;;13.73;12.63;;;;;;;11.01;100.00;99171.75;4958744;28;20205;-67
2021/10/08 09:45:02;;;;;;;10.57;8.23;;;;;;;11.28;100.00;99164.91;4951881;28;20754;-68
2021/10/08 09:47:31;;;;;;;9.20;8.33;;;;;;;11.44;100.00;99166.97;4955280;28;20301;-71
2021/10/08 09:50:10;;;;;;;13.90;8.60;;;;;;;11.32;100.00;99168.94;4954623;28;20232;-69
2021/10/08 09:52:38;;;;;;;9.10;8.37;;;;;;;11.36;100.00;99174.81;4922200;28;20226;-70
2021/10/08 09:55:09;;;;;;;8.70;7.73;;;;;;;11.53;100.00;99166.13;4951929;28;20210;-72
2021/10/08 09:57:57;;;;;;;8.43;7.63;;;;;;;11.69;100.00;99167.38;4955629;28;20267;-68
2021/10/08 10:00:40;;;;;;;7.83;7.03;;;;;;;11.96;100.00;99163.16;4952983;28;20603;-70
2021/10/08 10:03:11;;;;;;;8.43;7.70;;;;;;;12.06;100.00;99166.63;4950568;28;20253;-70
2021/10/08 10:05:40;;;;;;;9.63;8.60;;;;;;;12.20;100.00;99165.34;4955109;28;20218;-72
2021/10/08 10:08:08;;;;;;;9.07;8.03;;;;;;;12.30;100.00;99167.94;4918033;28;20222;-70
2021/10/08 10:10:37;;;;;;;9.57;8.57;;;;;;;12.55;100.00;99160.28;4951409;28;20511;-67
2021/10/08 10:13:07;;;;;;;8.50;7.70;;;;;;;12.54;100.00;99147.97;4951428;28;20234;-69
2021/10/08 10:15:36;;;;;;;8.47;7.63;;;;;;;12.89;100.00;99154.31;4953734;28;20686;-69
2021/10/08 10:18:05;;;;;;;9.37;8.50;;;;;;;13.10;100.00;99153.22;4953177;28;20210;-69
2021/10/08 10:20:36;;;;;;;9.73;8.83;;;;;;;13.20;100.00;99156.63;4956195;28;20520;-70
2021/10/08 10:23:06;;;;;;;9.23;8.43;;;;;;;13.26;100.00;99155.19;4919681;28;20336;-70
2021/10/08 10:25:35;;;;;;;10.00;8.50;;;;;;;13.53;100.00;99154.28;4956423;28;20207;-71
2021/10/08 10:28:04;;;;;;;9.27;8.30;;;;;;;13.65;100.00;99154.03;4960800;28;20221;-72
2021/10/08 10:30:33;;;;;;;10.37;8.17;;;;;;;13.52;100.00;99147.28;4914145;28;20964;-69
2021/10/08 10:33:02;;;;;;;8.33;7.53;;;;;;;13.63;100.00;99146.19;4956855;28;20230;-71
2021/10/08 10:35:56;;;;;;;8.23;7.53;;;;;;;14.04;100.00;99141.13;4949822;28;20211;-70
2021/10/08 10:38:30;;;;;;;8.50;7.63;;;;;;;13.86;100.00;99143.00;4949158;28;20213;-70
2021/10/08 10:41:22;;;;;;;8.83;8.03;;;;;;;13.92;100.00;99139.72;4955084;28;20272;-70
2021/10/08 10:43:52;;;;;;;9.93;8.17;;;;;;;14.03;100.00;99135.94;4915420;28;20910;-71
2021/10/08 10:46:31;;;;;;;8.17;7.40;;;;;;;14.11;100.00;99135.16;4950878;28;20536;-71
2021/10/08 10:49:28;;;;;;;8.10;7.40;;;;;;;14.08;100.00;99133.63;4953632;28;20938;-68
2021/10/08 10:52:28;;;;;;;8.53;7.73;;;;;;;14.30;100.00;99128.75;4954246;28;20238;-70
2021/10/08 10:55:08;;;;;;;9.00;8.17;;;;;;;14.52;100.00;99121.16;4922153;28;20225;-71
2021/10/08 10:57:55;;;;;;;8.07;7.33;;;;;;;14.47;100.00;99114.47;4948205;28;20418;-69
2021/10/08 11:00:32;;;;;;;8.57;7.80;;;;;;;14.58;100.00;99120.50;4920318;28;20607;-70
2021/10/08 11:03:03;;;;;;;8.57;7.77;;;;;;;14.83;100.00;99120.59;4952465;28;20755;-71
2021/10/08 11:05:32;;;;;;;9.30;8.40;;;;;;;14.85;100.00;99116.78;4941658;28;20234;-69
2021/10/08 11:08:16;;;;;;;8.70;7.90;;;;;;;14.77;100.00;99116.75;4954315;28;20211;-68
2021/10/08 11:10:46;;;;;;;9.07;8.17;;;;;;;14.94;100.00;99116.78;4940744;28;20778;-69
2021/10/08 11:13:27;;;;;;;8.83;8.03;;;;;;;14.92;100.00;99114.28;4933585;28;20230;-68
2021/10/08 11:16:01;;;;;;;8.43;7.63;;;;;;;15.31;100.00;99110.97;4922674;28;20562;-69
2021/10/08 11:18:49;;;;;;;8.87;6.57;;;;;;;15.47;100.00;99103.97;4940256;28;20234;-67
2021/10/08 11:21:49;;;;;;;7.77;7.07;;;;;;;16.26;100.00;99099.78;4951527;28;20225;-68
2021/10/08 11:24:21;;;;;;;6.50;6.00;;;;;;;16.43;100.00;99093.31;4952547;28;20234;-70
2021/10/08 11:26:59;;;;;;;7.23;6.63;;;;;;;16.78;100.00;99096.47;4940909;28;20214;-67
2021/10/08 11:29:30;;;;;;;7.07;6.13;;;;;;;17.02;100.00;99097.34;4947942;28;20508;-68
2021/10/08 11:32:06;;;;;;;7.47;6.77;;;;;;;16.51;100.00;99088.97;4919160;28;20218;-70
2021/10/08 11:34:34;;;;;;;7.27;6.57;;;;;;;16.24;100.00;99091.09;4933577;28;20444;-67
2021/10/08 11:37:03;;;;;;;7.27;6.60;;;;;;;16.31;100.00;99079.53;4953205;28;20237;-69
2021/10/08 11:39:32;;;;;;;6.87;6.27;;;;;;;16.62;100.00;99083.22;4943399;28;20206;-68
2021/10/08 11:42:08;;;;;;;6.97;6.47;;;;;;;16.93;100.00;99085.03;4949986;28;20270;-71
2021/10/08 11:44:41;;;;;;;7.07;6.43;;;;;;;17.16;100.00;99073.47;4937769;28;20241;-70